sensor_id;sensor_type;location;lat;lon;timestamp;P1;durP1;ratioP1;P2;durP2;ratioP2
45684;SDS011;46836;48.388;16.210;2023-04-24T00:00:03;4.82;;;4.40;;
45684;SDS011;46836;48.388;16.210;2023-04-24T00:02:38;4.80;;;4.30;;
45684;SDS011;46836;48.388;16.210;2023-04-24T00:05:07;5.07;;;4.28;;
45684;SDS011;46836;48.388;16.210;2023-04-24T00:07:35;4.60;;;3.85;;
45684;SDS011;46836;48.388;16.210;2023-04-24T00:10:02;4.10;;;3.70;;
45684;SDS011;46836;48.388;16.210;2023-04-24T00:12:29;6.13;;;4.22;;
45684;SDS011;46836;48.388;16.210;2023-04-24T00:14:57;4.45;;;4.05;;
45684;SDS011;46836;48.388;16.210;2023-04-24T00:17:24;5.18;;;4.65;;
45684;SDS011;46836;48.388;16.210;2023-04-24T00:19:51;5.97;;;4.38;;
45684;SDS011;46836;48.388;16.210;2023-04-24T00:22:25;4.60;;;4.20;;
45684;SDS011;46836;48.388;16.210;2023-04-24T00:24:53;4.30;;;3.90;;
45684;SDS011;46836;48.388;16.210;2023-04-24T00:27:20;5.07;;;4.50;;
45684;SDS011;46836;48.388;16.210;2023-04-24T00:29:47;4.30;;;3.90;;
45684;SDS011;46836;48.388;16.210;2023-04-24T00:32:14;6.57;;;4.05;;
45684;SDS011;46836;48.388;16.210;2023-04-24T00:34:42;5.25;;;4.55;;
45684;SDS011;46836;48.388;16.210;2023-04-24T00:37:09;5.20;;;4.55;;
45684;SDS011;46836;48.388;16.210;2023-04-24T00:39:36;5.55;;;4.95;;
45684;SDS011;46836;48.388;16.210;2023-04-24T00:42:03;6.00;;;4.60;;
45684;SDS011;46836;48.388;16.210;2023-04-24T00:44:32;6.43;;;5.03;;
45684;SDS011;46836;48.388;16.210;2023-04-24T00:47:01;5.10;;;4.35;;
45684;SDS011;46836;48.388;16.210;2023-04-24T00:49:28;5.95;;;5.35;;
45684;SDS011;46836;48.388;16.210;2023-04-24T00:51:55;6.22;;;4.95;;
45684;SDS011;46836;48.388;16.210;2023-04-24T00:54:23;5.53;;;4.93;;
45684;SDS011;46836;48.388;16.210;2023-04-24T00:56:50;5.95;;;5.35;;
45684;SDS011;46836;48.388;16.210;2023-04-24T00:59:17;7.00;;;5.43;;
45684;SDS011;46836;48.388;16.210;2023-04-24T01:01:45;5.75;;;5.25;;
45684;SDS011;46836;48.388;16.210;2023-04-24T01:04:12;6.18;;;4.80;;
45684;SDS011;46836;48.388;16.210;2023-04-24T01:06:40;5.60;;;5.10;;
45684;SDS011;46836;48.388;16.210;2023-04-24T01:09:09;9.82;;;5.30;;
45684;SDS011;46836;48.388;16.210;2023-04-24T01:11:38;6.32;;;4.75;;
45684;SDS011;46836;48.388;16.210;2023-04-24T01:14:07;5.68;;;5.07;;
45684;SDS011;46836;48.388;16.210;2023-04-24T01:16:34;5.93;;;5.22;;
45684;SDS011;46836;48.388;16.210;2023-04-24T01:19:02;5.20;;;4.60;;
45684;SDS011;46836;48.388;16.210;2023-04-24T01:21:29;5.10;;;4.40;;
45684;SDS011;46836;48.388;16.210;2023-04-24T01:23:59;5.93;;;5.15;;
45684;SDS011;46836;48.388;16.210;2023-04-24T01:26:26;6.75;;;5.10;;
45684;SDS011;46836;48.388;16.210;2023-04-24T01:28:54;7.75;;;5.25;;
45684;SDS011;46836;48.388;16.210;2023-04-24T01:31:21;6.95;;;5.18;;
45684;SDS011;46836;48.388;16.210;2023-04-24T01:33:48;5.93;;;4.47;;
45684;SDS011;46836;48.388;16.210;2023-04-24T01:36:16;5.75;;;4.78;;
45684;SDS011;46836;48.388;16.210;2023-04-24T01:38:43;8.85;;;4.80;;
45684;SDS011;46836;48.388;16.210;2023-04-24T01:41:10;6.18;;;5.57;;
45684;SDS011;46836;48.388;16.210;2023-04-24T01:43:37;5.75;;;5.15;;
45684;SDS011;46836;48.388;16.210;2023-04-24T01:46:05;11.15;;;5.25;;
45684;SDS011;46836;48.388;16.210;2023-04-24T01:48:33;6.45;;;5.75;;
45684;SDS011;46836;48.388;16.210;2023-04-24T01:51:00;7.05;;;5.90;;
45684;SDS011;46836;48.388;16.210;2023-04-24T01:53:27;6.55;;;5.95;;
45684;SDS011;46836;48.388;16.210;2023-04-24T01:55:54;7.63;;;5.85;;
45684;SDS011;46836;48.388;16.210;2023-04-24T01:58:21;6.65;;;5.68;;
45684;SDS011;46836;48.388;16.210;2023-04-24T02:00:49;7.35;;;6.63;;
45684;SDS011;46836;48.388;16.210;2023-04-24T02:03:16;6.63;;;6.03;;
45684;SDS011;46836;48.388;16.210;2023-04-24T02:05:44;8.55;;;6.75;;
45684;SDS011;46836;48.388;16.210;2023-04-24T02:08:11;7.13;;;6.43;;
45684;SDS011;46836;48.388;16.210;2023-04-24T02:10:38;8.75;;;5.72;;
45684;SDS011;46836;48.388;16.210;2023-04-24T02:13:05;6.40;;;5.80;;
45684;SDS011;46836;48.388;16.210;2023-04-24T02:15:32;7.55;;;6.50;;
45684;SDS011;46836;48.388;16.210;2023-04-24T02:17:59;6.20;;;5.60;;
45684;SDS011;46836;48.388;16.210;2023-04-24T02:20:26;8.52;;;6.50;;
45684;SDS011;46836;48.388;16.210;2023-04-24T02:22:53;7.22;;;6.25;;
45684;SDS011;46836;48.388;16.210;2023-04-24T02:25:21;8.18;;;7.38;;
45684;SDS011;46836;48.388;16.210;2023-04-24T02:27:48;11.77;;;6.60;;
45684;SDS011;46836;48.388;16.210;2023-04-24T02:30:15;6.70;;;5.88;;
45684;SDS011;46836;48.388;16.210;2023-04-24T02:32:42;7.20;;;5.70;;
45684;SDS011;46836;48.388;16.210;2023-04-24T02:35:09;11.43;;;6.07;;
45684;SDS011;46836;48.388;16.210;2023-04-24T02:37:36;7.97;;;6.20;;
45684;SDS011;46836;48.388;16.210;2023-04-24T02:40:04;9.05;;;6.40;;
45684;SDS011;46836;48.388;16.210;2023-04-24T02:42:32;6.85;;;5.75;;
45684;SDS011;46836;48.388;16.210;2023-04-24T02:44:59;6.95;;;5.95;;
45684;SDS011;46836;48.388;16.210;2023-04-24T02:47:26;6.72;;;6.13;;
45684;SDS011;46836;48.388;16.210;2023-04-24T02:49:53;8.18;;;6.82;;
45684;SDS011;46836;48.388;16.210;2023-04-24T02:52:20;7.28;;;6.40;;
45684;SDS011;46836;48.388;16.210;2023-04-24T02:54:47;6.93;;;6.22;;
45684;SDS011;46836;48.388;16.210;2023-04-24T02:57:14;7.38;;;6.35;;
45684;SDS011;46836;48.388;16.210;2023-04-24T02:59:41;7.05;;;6.35;;
45684;SDS011;46836;48.388;16.210;2023-04-24T03:02:08;7.90;;;5.63;;
45684;SDS011;46836;48.388;16.210;2023-04-24T03:04:35;6.80;;;6.15;;
45684;SDS011;46836;48.388;16.210;2023-04-24T03:07:03;6.32;;;5.70;;
45684;SDS011;46836;48.388;16.210;2023-04-24T03:09:31;8.05;;;5.72;;
45684;SDS011;46836;48.388;16.210;2023-04-24T03:11:57;8.00;;;6.22;;
45684;SDS011;46836;48.388;16.210;2023-04-24T03:14:24;7.00;;;6.00;;
45684;SDS011;46836;48.388;16.210;2023-04-24T03:16:52;7.15;;;6.10;;
45684;SDS011;46836;48.388;16.210;2023-04-24T03:19:19;6.57;;;5.93;;
45684;SDS011;46836;48.388;16.210;2023-04-24T03:21:46;6.35;;;5.72;;
45684;SDS011;46836;48.388;16.210;2023-04-24T03:24:13;8.23;;;6.72;;
45684;SDS011;46836;48.388;16.210;2023-04-24T03:26:40;7.28;;;6.35;;
45684;SDS011;46836;48.388;16.210;2023-04-24T03:29:07;8.52;;;6.70;;
45684;SDS011;46836;48.388;16.210;2023-04-24T03:31:34;9.13;;;7.03;;
45684;SDS011;46836;48.388;16.210;2023-04-24T03:34:01;7.03;;;6.32;;
45684;SDS011;46836;48.388;16.210;2023-04-24T03:36:28;7.93;;;6.63;;
45684;SDS011;46836;48.388;16.210;2023-04-24T03:38:55;9.20;;;7.72;;
45684;SDS011;46836;48.388;16.210;2023-04-24T03:41:22;7.43;;;6.63;;
45684;SDS011;46836;48.388;16.210;2023-04-24T03:43:49;8.38;;;6.50;;
45684;SDS011;46836;48.388;16.210;2023-04-24T03:46:16;7.97;;;7.18;;
45684;SDS011;46836;48.388;16.210;2023-04-24T03:48:43;8.98;;;7.30;;
45684;SDS011;46836;48.388;16.210;2023-04-24T03:51:10;8.30;;;6.97;;
45684;SDS011;46836;48.388;16.210;2023-04-24T03:53:37;9.32;;;7.53;;
45684;SDS011;46836;48.388;16.210;2023-04-24T03:56:04;8.07;;;7.28;;
45684;SDS011;46836;48.388;16.210;2023-04-24T03:58:31;9.18;;;6.80;;
45684;SDS011;46836;48.388;16.210;2023-04-24T04:00:58;7.90;;;6.95;;
45684;SDS011;46836;48.388;16.210;2023-04-24T04:03:26;8.27;;;7.00;;
45684;SDS011;46836;48.388;16.210;2023-04-24T04:05:53;9.32;;;7.22;;
45684;SDS011;46836;48.388;16.210;2023-04-24T04:08:20;8.45;;;7.28;;
45684;SDS011;46836;48.388;16.210;2023-04-24T04:10:47;8.20;;;7.15;;
45684;SDS011;46836;48.388;16.210;2023-04-24T04:13:15;8.52;;;7.40;;
45684;SDS011;46836;48.388;16.210;2023-04-24T04:15:42;8.68;;;7.20;;
45684;SDS011;46836;48.388;16.210;2023-04-24T04:18:09;9.27;;;7.40;;
45684;SDS011;46836;48.388;16.210;2023-04-24T04:20:36;8.43;;;7.32;;
45684;SDS011;46836;48.388;16.210;2023-04-24T04:23:03;8.60;;;7.70;;
45684;SDS011;46836;48.388;16.210;2023-04-24T04:25:30;11.95;;;8.57;;
45684;SDS011;46836;48.388;16.210;2023-04-24T04:27:57;10.40;;;7.38;;
45684;SDS011;46836;48.388;16.210;2023-04-24T04:30:25;7.50;;;6.70;;
45684;SDS011;46836;48.388;16.210;2023-04-24T04:32:53;10.43;;;7.43;;
45684;SDS011;46836;48.388;16.210;2023-04-24T04:35:19;10.30;;;8.80;;
45684;SDS011;46836;48.388;16.210;2023-04-24T04:37:48;8.48;;;7.57;;
45684;SDS011;46836;48.388;16.210;2023-04-24T04:40:15;12.25;;;8.10;;
45684;SDS011;46836;48.388;16.210;2023-04-24T04:42:42;11.50;;;8.60;;
45684;SDS011;46836;48.388;16.210;2023-04-24T04:45:12;12.93;;;9.35;;
45684;SDS011;46836;48.388;16.210;2023-04-24T04:47:39;10.88;;;8.30;;
45684;SDS011;46836;48.388;16.210;2023-04-24T04:50:06;11.95;;;8.93;;
45684;SDS011;46836;48.388;16.210;2023-04-24T04:52:33;10.85;;;8.23;;
45684;SDS011;46836;48.388;16.210;2023-04-24T04:55:00;9.18;;;7.95;;
45684;SDS011;46836;48.388;16.210;2023-04-24T04:57:28;11.02;;;8.00;;
45684;SDS011;46836;48.388;16.210;2023-04-24T04:59:55;10.65;;;7.65;;
45684;SDS011;46836;48.388;16.210;2023-04-24T05:02:22;7.50;;;6.32;;
45684;SDS011;46836;48.388;16.210;2023-04-24T05:04:49;13.20;;;6.97;;
45684;SDS011;46836;48.388;16.210;2023-04-24T05:07:16;9.05;;;6.55;;
45684;SDS011;46836;48.388;16.210;2023-04-24T05:09:44;8.73;;;6.90;;
45684;SDS011;46836;48.388;16.210;2023-04-24T05:12:11;8.43;;;6.50;;
45684;SDS011;46836;48.388;16.210;2023-04-24T05:14:38;11.68;;;6.38;;
45684;SDS011;46836;48.388;16.210;2023-04-24T05:17:05;9.30;;;6.70;;
45684;SDS011;46836;48.388;16.210;2023-04-24T05:19:33;8.02;;;5.82;;
45684;SDS011;46836;48.388;16.210;2023-04-24T05:22:02;8.45;;;6.72;;
45684;SDS011;46836;48.388;16.210;2023-04-24T05:24:30;8.90;;;5.85;;
45684;SDS011;46836;48.388;16.210;2023-04-24T05:26:57;7.70;;;6.30;;
45684;SDS011;46836;48.388;16.210;2023-04-24T05:29:25;7.93;;;6.10;;
45684;SDS011;46836;48.388;16.210;2023-04-24T05:31:52;7.28;;;5.78;;
45684;SDS011;46836;48.388;16.210;2023-04-24T05:34:20;7.25;;;6.28;;
45684;SDS011;46836;48.388;16.210;2023-04-24T05:36:47;6.80;;;6.10;;
45684;SDS011;46836;48.388;16.210;2023-04-24T05:39:14;6.70;;;6.07;;
45684;SDS011;46836;48.388;16.210;2023-04-24T05:41:41;6.55;;;5.70;;
45684;SDS011;46836;48.388;16.210;2023-04-24T05:44:08;6.72;;;6.10;;
45684;SDS011;46836;48.388;16.210;2023-04-24T05:46:35;7.03;;;5.78;;
45684;SDS011;46836;48.388;16.210;2023-04-24T05:49:03;7.40;;;5.90;;
45684;SDS011;46836;48.388;16.210;2023-04-24T05:51:30;7.03;;;6.25;;
45684;SDS011;46836;48.388;16.210;2023-04-24T05:53:58;7.00;;;6.30;;
45684;SDS011;46836;48.388;16.210;2023-04-24T05:56:25;8.32;;;6.00;;
45684;SDS011;46836;48.388;16.210;2023-04-24T05:58:52;11.23;;;6.80;;
45684;SDS011;46836;48.388;16.210;2023-04-24T06:01:19;10.45;;;5.20;;
45684;SDS011;46836;48.388;16.210;2023-04-24T06:03:47;7.15;;;5.85;;
45684;SDS011;46836;48.388;16.210;2023-04-24T06:06:14;7.28;;;5.63;;
45684;SDS011;46836;48.388;16.210;2023-04-24T06:08:42;5.88;;;5.28;;
45684;SDS011;46836;48.388;16.210;2023-04-24T06:11:10;8.95;;;4.93;;
45684;SDS011;46836;48.388;16.210;2023-04-24T06:13:37;7.63;;;4.88;;
45684;SDS011;46836;48.388;16.210;2023-04-24T06:16:04;5.30;;;4.78;;
45684;SDS011;46836;48.388;16.210;2023-04-24T06:18:32;7.40;;;5.30;;
45684;SDS011;46836;48.388;16.210;2023-04-24T06:20:59;6.93;;;5.30;;
45684;SDS011;46836;48.388;16.210;2023-04-24T06:23:26;4.68;;;4.28;;
45684;SDS011;46836;48.388;16.210;2023-04-24T06:25:53;8.35;;;5.30;;
45684;SDS011;46836;48.388;16.210;2023-04-24T06:28:20;6.60;;;5.78;;
45684;SDS011;46836;48.388;16.210;2023-04-24T06:30:47;7.10;;;5.57;;
45684;SDS011;46836;48.388;16.210;2023-04-24T06:33:14;5.45;;;4.95;;
45684;SDS011;46836;48.388;16.210;2023-04-24T06:35:47;6.15;;;5.53;;
45684;SDS011;46836;48.388;16.210;2023-04-24T06:38:14;6.05;;;5.22;;
45684;SDS011;46836;48.388;16.210;2023-04-24T06:40:43;5.72;;;4.95;;
45684;SDS011;46836;48.388;16.210;2023-04-24T06:43:10;5.22;;;4.72;;
45684;SDS011;46836;48.388;16.210;2023-04-24T06:45:37;5.25;;;4.55;;
45684;SDS011;46836;48.388;16.210;2023-04-24T06:48:06;9.00;;;5.45;;
45684;SDS011;46836;48.388;16.210;2023-04-24T06:50:34;6.40;;;5.20;;
45684;SDS011;46836;48.388;16.210;2023-04-24T06:53:01;5.88;;;5.25;;
45684;SDS011;46836;48.388;16.210;2023-04-24T06:55:28;6.65;;;5.13;;
45684;SDS011;46836;48.388;16.210;2023-04-24T06:57:55;6.10;;;5.20;;
45684;SDS011;46836;48.388;16.210;2023-04-24T07:00:22;5.38;;;4.88;;
45684;SDS011;46836;48.388;16.210;2023-04-24T07:02:50;11.15;;;6.20;;
45684;SDS011;46836;48.388;16.210;2023-04-24T07:05:18;8.48;;;5.70;;
45684;SDS011;46836;48.388;16.210;2023-04-24T07:07:48;6.47;;;5.60;;
45684;SDS011;46836;48.388;16.210;2023-04-24T07:10:16;6.97;;;5.75;;
45684;SDS011;46836;48.388;16.210;2023-04-24T07:12:44;7.35;;;5.70;;
45684;SDS011;46836;48.388;16.210;2023-04-24T07:15:11;7.07;;;6.10;;
45684;SDS011;46836;48.388;16.210;2023-04-24T07:17:38;6.07;;;5.13;;
45684;SDS011;46836;48.388;16.210;2023-04-24T07:20:10;9.80;;;6.00;;
45684;SDS011;46836;48.388;16.210;2023-04-24T07:22:38;6.82;;;6.22;;
45684;SDS011;46836;48.388;16.210;2023-04-24T07:25:05;8.80;;;6.77;;
45684;SDS011;46836;48.388;16.210;2023-04-24T07:27:33;6.33;;;5.73;;
45684;SDS011;46836;48.388;16.210;2023-04-24T07:30:03;6.60;;;5.90;;
45684;SDS011;46836;48.388;16.210;2023-04-24T07:32:31;6.25;;;5.65;;
45684;SDS011;46836;48.388;16.210;2023-04-24T07:34:58;7.53;;;5.70;;
45684;SDS011;46836;48.388;16.210;2023-04-24T07:37:25;6.20;;;5.60;;
45684;SDS011;46836;48.388;16.210;2023-04-24T07:39:52;5.77;;;5.03;;
45684;SDS011;46836;48.388;16.210;2023-04-24T07:42:19;8.40;;;6.30;;
45684;SDS011;46836;48.388;16.210;2023-04-24T07:44:46;7.80;;;6.83;;
45684;SDS011;46836;48.388;16.210;2023-04-24T07:47:14;6.67;;;6.00;;
45684;SDS011;46836;48.388;16.210;2023-04-24T07:49:43;7.50;;;6.70;;
45684;SDS011;46836;48.388;16.210;2023-04-24T07:52:11;9.63;;;6.77;;
45684;SDS011;46836;48.388;16.210;2023-04-24T07:54:38;7.83;;;6.30;;
45684;SDS011;46836;48.388;16.210;2023-04-24T07:57:05;6.70;;;6.07;;
45684;SDS011;46836;48.388;16.210;2023-04-24T07:59:33;5.53;;;4.90;;
45684;SDS011;46836;48.388;16.210;2023-04-24T08:02:00;4.97;;;4.57;;
45684;SDS011;46836;48.388;16.210;2023-04-24T08:04:28;5.20;;;4.67;;
45684;SDS011;46836;48.388;16.210;2023-04-24T08:06:55;5.93;;;4.83;;
45684;SDS011;46836;48.388;16.210;2023-04-24T08:09:22;4.57;;;4.17;;
45684;SDS011;46836;48.388;16.210;2023-04-24T08:11:52;4.77;;;4.10;;
45684;SDS011;46836;48.388;16.210;2023-04-24T08:14:20;7.40;;;3.63;;
45684;SDS011;46836;48.388;16.210;2023-04-24T08:16:47;4.80;;;3.97;;
45684;SDS011;46836;48.388;16.210;2023-04-24T08:19:14;4.20;;;3.80;;
45684;SDS011;46836;48.388;16.210;2023-04-24T08:21:41;4.60;;;3.57;;
45684;SDS011;46836;48.388;16.210;2023-04-24T08:24:08;4.47;;;3.00;;
45684;SDS011;46836;48.388;16.210;2023-04-24T08:26:35;3.63;;;3.33;;
45684;SDS011;46836;48.388;16.210;2023-04-24T08:29:02;3.40;;;3.10;;
45684;SDS011;46836;48.388;16.210;2023-04-24T08:31:30;4.85;;;3.00;;
45684;SDS011;46836;48.388;16.210;2023-04-24T08:33:57;4.00;;;2.97;;
45684;SDS011;46836;48.388;16.210;2023-04-24T08:36:24;5.10;;;2.87;;
45684;SDS011;46836;48.388;16.210;2023-04-24T08:39:05;3.23;;;2.93;;
45684;SDS011;46836;48.388;16.210;2023-04-24T08:41:33;2.70;;;2.40;;
45684;SDS011;46836;48.388;16.210;2023-04-24T08:44:01;3.83;;;3.03;;
45684;SDS011;46836;48.388;16.210;2023-04-24T08:46:29;2.87;;;2.23;;
45684;SDS011;46836;48.388;16.210;2023-04-24T08:48:57;2.83;;;2.15;;
45684;SDS011;46836;48.388;16.210;2023-04-24T08:51:26;2.92;;;2.28;;
45684;SDS011;46836;48.388;16.210;2023-04-24T08:53:54;1.80;;;1.60;;
45684;SDS011;46836;48.388;16.210;2023-04-24T08:56:21;2.87;;;1.83;;
45684;SDS011;46836;48.388;16.210;2023-04-24T08:58:53;1.50;;;1.40;;
45684;SDS011;46836;48.388;16.210;2023-04-24T09:01:21;4.03;;;1.70;;
45684;SDS011;46836;48.388;16.210;2023-04-24T09:03:51;5.65;;;1.48;;
45684;SDS011;46836;48.388;16.210;2023-04-24T09:06:23;2.23;;;1.60;;
45684;SDS011;46836;48.388;16.210;2023-04-24T09:08:52;1.30;;;1.20;;
45684;SDS011;46836;48.388;16.210;2023-04-24T09:11:22;2.10;;;1.65;;
45684;SDS011;46836;48.388;16.210;2023-04-24T09:13:51;1.73;;;1.50;;
45684;SDS011;46836;48.388;16.210;2023-04-24T09:16:21;1.25;;;1.10;;
45684;SDS011;46836;48.388;16.210;2023-04-24T09:18:50;1.40;;;1.30;;
45684;SDS011;46836;48.388;16.210;2023-04-24T09:21:20;2.35;;;1.00;;
45684;SDS011;46836;48.388;16.210;2023-04-24T09:23:59;1.02;;;0.93;;
45684;SDS011;46836;48.388;16.210;2023-04-24T09:26:29;1.80;;;1.27;;
45684;SDS011;46836;48.388;16.210;2023-04-24T09:29:00;1.13;;;0.90;;
45684;SDS011;46836;48.388;16.210;2023-04-24T09:31:28;2.30;;;1.20;;
45684;SDS011;46836;48.388;16.210;2023-04-24T09:34:03;0.95;;;0.85;;
45684;SDS011;46836;48.388;16.210;2023-04-24T09:36:38;1.20;;;1.08;;
45684;SDS011;46836;48.388;16.210;2023-04-24T09:39:10;1.55;;;1.45;;
45684;SDS011;46836;48.388;16.210;2023-04-24T09:41:53;0.98;;;0.98;;
45684;SDS011;46836;48.388;16.210;2023-04-24T09:44:26;1.27;;;1.17;;
45684;SDS011;46836;48.388;16.210;2023-04-24T09:46:55;1.63;;;1.05;;
45684;SDS011;46836;48.388;16.210;2023-04-24T09:49:24;1.20;;;1.10;;
45684;SDS011;46836;48.388;16.210;2023-04-24T09:52:02;3.05;;;1.38;;
45684;SDS011;46836;48.388;16.210;2023-04-24T09:54:33;1.40;;;1.30;;
45684;SDS011;46836;48.388;16.210;2023-04-24T09:57:03;2.65;;;1.20;;
45684;SDS011;46836;48.388;16.210;2023-04-24T09:59:30;1.52;;;1.42;;
45684;SDS011;46836;48.388;16.210;2023-04-24T10:01:59;1.50;;;1.40;;
45684;SDS011;46836;48.388;16.210;2023-04-24T10:04:28;1.23;;;1.13;;
45684;SDS011;46836;48.388;16.210;2023-04-24T10:06:56;1.40;;;1.30;;
45684;SDS011;46836;48.388;16.210;2023-04-24T10:09:25;2.22;;;1.27;;
45684;SDS011;46836;48.388;16.210;2023-04-24T10:11:53;1.50;;;1.40;;
45684;SDS011;46836;48.388;16.210;2023-04-24T10:14:24;1.95;;;1.75;;
45684;SDS011;46836;48.388;16.210;2023-04-24T10:16:55;1.60;;;1.45;;
45684;SDS011;46836;48.388;16.210;2023-04-24T10:19:25;1.35;;;1.25;;
45684;SDS011;46836;48.388;16.210;2023-04-24T10:21:52;3.92;;;1.45;;
45684;SDS011;46836;48.388;16.210;2023-04-24T10:24:22;2.10;;;1.90;;
45684;SDS011;46836;48.388;16.210;2023-04-24T10:26:49;1.90;;;1.70;;
45684;SDS011;46836;48.388;16.210;2023-04-24T10:29:17;3.65;;;1.70;;
45684;SDS011;46836;48.388;16.210;2023-04-24T10:31:45;1.70;;;1.60;;
45684;SDS011;46836;48.388;16.210;2023-04-24T10:34:14;3.80;;;1.65;;
45684;SDS011;46836;48.388;16.210;2023-04-24T10:36:53;2.00;;;1.60;;
45684;SDS011;46836;48.388;16.210;2023-04-24T10:39:23;2.72;;;1.70;;
45684;SDS011;46836;48.388;16.210;2023-04-24T10:41:53;2.78;;;1.50;;
45684;SDS011;46836;48.388;16.210;2023-04-24T10:44:24;2.55;;;1.85;;
45684;SDS011;46836;48.388;16.210;2023-04-24T10:46:53;1.52;;;1.42;;
45684;SDS011;46836;48.388;16.210;2023-04-24T10:49:29;1.30;;;1.20;;
45684;SDS011;46836;48.388;16.210;2023-04-24T10:52:01;2.10;;;1.85;;
45684;SDS011;46836;48.388;16.210;2023-04-24T10:59:49;3.50;;;1.70;;
45684;SDS011;46836;48.388;16.210;2023-04-24T11:02:20;3.65;;;1.90;;
45684;SDS011;46836;48.388;16.210;2023-04-24T11:05:04;2.33;;;2.13;;
45684;SDS011;46836;48.388;16.210;2023-04-24T11:10:46;1.80;;;1.70;;
45684;SDS011;46836;48.388;16.210;2023-04-24T11:13:23;1.83;;;1.73;;
45684;SDS011;46836;48.388;16.210;2023-04-24T11:18:42;2.25;;;2.05;;
45684;SDS011;46836;48.388;16.210;2023-04-24T11:21:17;2.20;;;1.98;;
45684;SDS011;46836;48.388;16.210;2023-04-24T11:23:45;2.47;;;2.03;;
45684;SDS011;46836;48.388;16.210;2023-04-24T11:26:17;2.20;;;2.00;;
45684;SDS011;46836;48.388;16.210;2023-04-24T11:28:49;1.80;;;1.70;;
45684;SDS011;46836;48.388;16.210;2023-04-24T11:34:10;1.73;;;1.63;;
45684;SDS011;46836;48.388;16.210;2023-04-24T11:36:42;3.22;;;2.22;;
45684;SDS011;46836;48.388;16.210;2023-04-24T11:39:10;2.03;;;1.55;;
45684;SDS011;46836;48.388;16.210;2023-04-24T11:41:38;4.50;;;2.45;;
45684;SDS011;46836;48.388;16.210;2023-04-24T11:44:08;2.58;;;2.08;;
45684;SDS011;46836;48.388;16.210;2023-04-24T11:46:36;2.30;;;2.10;;
45684;SDS011;46836;48.388;16.210;2023-04-24T11:49:07;2.28;;;2.08;;
45684;SDS011;46836;48.388;16.210;2023-04-24T11:51:34;2.42;;;2.03;;
45684;SDS011;46836;48.388;16.210;2023-04-24T11:54:19;2.70;;;1.90;;
45684;SDS011;46836;48.388;16.210;2023-04-24T11:56:46;2.30;;;2.10;;
45684;SDS011;46836;48.388;16.210;2023-04-24T11:59:14;4.65;;;2.88;;
45684;SDS011;46836;48.388;16.210;2023-04-24T12:01:47;3.92;;;2.25;;
45684;SDS011;46836;48.388;16.210;2023-04-24T12:04:16;4.70;;;2.85;;
45684;SDS011;46836;48.388;16.210;2023-04-24T12:07:03;3.15;;;2.20;;
45684;SDS011;46836;48.388;16.210;2023-04-24T12:09:41;2.23;;;2.03;;
45684;SDS011;46836;48.388;16.210;2023-04-24T12:12:09;4.05;;;2.10;;
45684;SDS011;46836;48.388;16.210;2023-04-24T12:14:48;1.93;;;1.70;;
45684;SDS011;46836;48.388;16.210;2023-04-24T12:17:16;1.93;;;1.73;;
45684;SDS011;46836;48.388;16.210;2023-04-24T12:19:47;2.20;;;2.00;;
45684;SDS011;46836;48.388;16.210;2023-04-24T12:22:15;1.50;;;1.40;;
45684;SDS011;46836;48.388;16.210;2023-04-24T12:25:03;2.40;;;1.70;;
45684;SDS011;46836;48.388;16.210;2023-04-24T12:27:32;1.60;;;1.50;;
45684;SDS011;46836;48.388;16.210;2023-04-24T12:30:01;2.13;;;1.77;;
45684;SDS011;46836;48.388;16.210;2023-04-24T12:32:40;1.73;;;1.63;;
45684;SDS011;46836;48.388;16.210;2023-04-24T12:35:08;5.70;;;1.60;;
45684;SDS011;46836;48.388;16.210;2023-04-24T12:37:35;1.30;;;1.20;;
45684;SDS011;46836;48.388;16.210;2023-04-24T12:40:07;3.13;;;1.37;;
45684;SDS011;46836;48.388;16.210;2023-04-24T12:42:42;2.93;;;1.40;;
45684;SDS011;46836;48.388;16.210;2023-04-24T12:45:17;1.00;;;0.90;;
45684;SDS011;46836;48.388;16.210;2023-04-24T12:47:45;1.30;;;1.20;;
45684;SDS011;46836;48.388;16.210;2023-04-24T12:50:14;3.60;;;1.93;;
45684;SDS011;46836;48.388;16.210;2023-04-24T12:52:42;1.77;;;1.53;;
45684;SDS011;46836;48.388;16.210;2023-04-24T12:55:11;1.57;;;1.47;;
45684;SDS011;46836;48.388;16.210;2023-04-24T12:57:39;1.87;;;1.00;;
45684;SDS011;46836;48.388;16.210;2023-04-24T13:00:07;0.90;;;0.90;;
45684;SDS011;46836;48.388;16.210;2023-04-24T13:02:36;2.60;;;1.47;;
45684;SDS011;46836;48.388;16.210;2023-04-24T13:05:03;1.07;;;0.90;;
45684;SDS011;46836;48.388;16.210;2023-04-24T13:07:30;1.30;;;1.20;;
45684;SDS011;46836;48.388;16.210;2023-04-24T13:09:58;1.03;;;0.70;;
45684;SDS011;46836;48.388;16.210;2023-04-24T13:12:25;1.37;;;1.20;;
45684;SDS011;46836;48.388;16.210;2023-04-24T13:14:53;1.20;;;1.10;;
45684;SDS011;46836;48.388;16.210;2023-04-24T13:17:21;1.37;;;1.27;;
45684;SDS011;46836;48.388;16.210;2023-04-24T13:19:50;0.80;;;0.70;;
45684;SDS011;46836;48.388;16.210;2023-04-24T13:22:18;0.83;;;0.60;;
45684;SDS011;46836;48.388;16.210;2023-04-24T13:24:45;4.13;;;1.17;;
45684;SDS011;46836;48.388;16.210;2023-04-24T13:27:15;2.43;;;1.07;;
45684;SDS011;46836;48.388;16.210;2023-04-24T13:29:43;1.00;;;0.87;;
45684;SDS011;46836;48.388;16.210;2023-04-24T13:32:11;1.50;;;1.33;;
45684;SDS011;46836;48.388;16.210;2023-04-24T13:34:38;1.23;;;0.97;;
45684;SDS011;46836;48.388;16.210;2023-04-24T13:37:05;1.10;;;1.00;;
45684;SDS011;46836;48.388;16.210;2023-04-24T13:39:32;1.57;;;1.40;;
45684;SDS011;46836;48.388;16.210;2023-04-24T13:41:59;1.60;;;1.00;;
45684;SDS011;46836;48.388;16.210;2023-04-24T13:44:30;1.13;;;1.03;;
45684;SDS011;46836;48.388;16.210;2023-04-24T13:46:57;1.47;;;1.37;;
45684;SDS011;46836;48.388;16.210;2023-04-24T13:49:25;2.03;;;1.40;;
45684;SDS011;46836;48.388;16.210;2023-04-24T13:51:53;1.20;;;1.10;;
45684;SDS011;46836;48.388;16.210;2023-04-24T13:54:21;1.57;;;1.03;;
45684;SDS011;46836;48.388;16.210;2023-04-24T13:56:52;1.63;;;1.30;;
45684;SDS011;46836;48.388;16.210;2023-04-24T13:59:20;2.27;;;1.23;;
45684;SDS011;46836;48.388;16.210;2023-04-24T14:01:49;3.60;;;1.17;;
45684;SDS011;46836;48.388;16.210;2023-04-24T14:04:16;1.10;;;0.90;;
45684;SDS011;46836;48.388;16.210;2023-04-24T14:06:44;1.90;;;1.30;;
45684;SDS011;46836;48.388;16.210;2023-04-24T14:09:11;1.37;;;1.27;;
45684;SDS011;46836;48.388;16.210;2023-04-24T14:11:39;1.60;;;1.30;;
45684;SDS011;46836;48.388;16.210;2023-04-24T14:14:07;2.30;;;1.43;;
45684;SDS011;46836;48.388;16.210;2023-04-24T14:16:34;1.03;;;0.93;;
45684;SDS011;46836;48.388;16.210;2023-04-24T14:19:02;1.07;;;0.97;;
45684;SDS011;46836;48.388;16.210;2023-04-24T14:21:29;1.10;;;1.00;;
45684;SDS011;46836;48.388;16.210;2023-04-24T14:23:57;3.73;;;1.47;;
45684;SDS011;46836;48.388;16.210;2023-04-24T14:26:24;1.13;;;1.03;;
45684;SDS011;46836;48.388;16.210;2023-04-24T14:28:51;1.50;;;1.10;;
45684;SDS011;46836;48.388;16.210;2023-04-24T14:31:36;2.80;;;1.43;;
45684;SDS011;46836;48.388;16.210;2023-04-24T14:34:03;1.63;;;1.13;;
45684;SDS011;46836;48.388;16.210;2023-04-24T14:36:31;1.83;;;1.23;;
45684;SDS011;46836;48.388;16.210;2023-04-24T14:38:58;1.20;;;0.90;;
45684;SDS011;46836;48.388;16.210;2023-04-24T14:41:25;1.80;;;1.33;;
45684;SDS011;46836;48.388;16.210;2023-04-24T14:43:52;1.20;;;1.03;;
45684;SDS011;46836;48.388;16.210;2023-04-24T14:46:19;1.03;;;0.93;;
45684;SDS011;46836;48.388;16.210;2023-04-24T14:48:46;1.67;;;1.30;;
45684;SDS011;46836;48.388;16.210;2023-04-24T14:51:13;1.10;;;1.00;;
45684;SDS011;46836;48.388;16.210;2023-04-24T14:53:40;2.20;;;1.53;;